Time;durP1;ratioP1;P1;durP2;ratioP2;P2;SDS_P1;SDS_P2;PMS_P1;PMS_P2;Temp;Humidity;BMP_temperature;BMP_pressure;BME280_temperature;BME280_humidity;BME280_pressure;Samples;Min_cycle;Max_cycle;Signal;HPM_P1;HPM_P2
2023/04/24 00:00:56;;;;;;;18.03;16.13;;;12.20;90.40;;;;;;5018097;28;20183;-91
2023/04/24 00:03:27;;;;;;;18.50;16.63;;;12.10;90.50;;;;;;5017281;28;20173;-91
2023/04/24 00:05:56;;;;;;;24.80;22.57;;;12.10;90.60;;;;;;5017594;28;20180;-91
2023/04/24 00:08:22;;;;;;;25.40;23.17;;;12.10;90.60;;;;;;5017302;28;20176;-91
2023/04/24 00:10:48;;;;;;;25.47;23.47;;;12.00;90.70;;;;;;5017259;28;20177;-91
2023/04/24 00:13:13;;;;;;;25.40;23.37;;;12.00;90.80;;;;;;5017315;28;20179;-91
2023/04/24 00:15:39;;;;;;;17.80;16.20;;;12.00;90.90;;;;;;5017255;28;20183;-91
2023/04/24 00:18:05;;;;;;;18.87;16.93;;;12.00;91.00;;;;;;5016849;28;20572;-90
2023/04/24 00:20:32;;;;;;;19.03;17.33;;;12.00;91.10;;;;;;5016636;28;20267;-90
2023/04/24 00:22:57;;;;;;;25.53;23.63;;;11.90;91.20;;;;;;5017026;28;20228;-91
2023/04/24 00:25:23;;;;;;;25.73;23.77;;;11.90;91.30;;;;;;5017308;28;20526;-90
2023/04/24 00:27:49;;;;;;;25.63;23.63;;;11.90;91.40;;;;;;5016972;28;20197;-91
2023/04/24 00:30:14;;;;;;;16.83;15.37;;;12.00;91.50;;;;;;5016949;28;20523;-91
2023/04/24 00:32:41;;;;;;;17.57;15.97;;;12.00;91.40;;;;;;5017262;28;20211;-91
2023/04/24 00:35:07;;;;;;;17.67;15.97;;;12.00;91.50;;;;;;5016733;28;20212;-92
2023/04/24 00:37:32;;;;;;;24.43;22.33;;;12.00;91.50;;;;;;5016814;28;20220;-91
2023/04/24 00:39:58;;;;;;;22.63;20.83;;;12.00;91.50;;;;;;5016882;28;20193;-92
2023/04/24 00:42:24;;;;;;;23.07;21.10;;;12.00;91.50;;;;;;5016134;28;20176;-92
2023/04/24 00:44:50;;;;;;;21.97;20.37;;;11.90;91.50;;;;;;5015871;28;20204;-91
2023/04/24 00:47:16;;;;;;;19.17;17.03;;;11.80;91.40;;;;;;5016397;28;20291;-92
2023/04/24 00:49:42;;;;;;;16.57;14.97;;;11.80;91.40;;;;;;5017116;28;20204;-91
2023/04/24 00:52:08;;;;;;;22.67;20.87;;;11.80;91.50;;;;;;5018726;28;20208;-92
2023/04/24 00:54:35;;;;;;;20.73;19.17;;;11.80;91.40;;;;;;5020709;28;20234;-92
2023/04/24 00:57:03;;;;;;;21.47;19.80;;;11.70;91.30;;;;;;5020828;28;20193;-92
2023/04/24 00:59:29;;;;;;;20.80;18.90;;;11.60;91.20;;;;;;5022310;28;20231;-92
2023/04/24 01:01:55;;;;;;;14.47;13.27;;;11.50;91.20;;;;;;5022475;28;20177;-92
2023/04/24 01:04:21;;;;;;;14.37;12.97;;;11.60;91.30;;;;;;5021043;28;20247;-91
2023/04/24 01:06:48;;;;;;;20.60;18.93;;;11.50;91.10;;;;;;5017912;28;20203;-90
2023/04/24 01:09:15;;;;;;;20.53;18.90;;;11.50;90.90;;;;;;5018028;28;20176;-91
2023/04/24 01:11:42;;;;;;;21.30;19.30;;;11.40;90.90;;;;;;5017872;28;20712;-91
2023/04/24 01:14:08;;;;;;;20.30;18.70;;;11.30;90.90;;;;;;5017594;28;20560;-91
2023/04/24 01:16:34;;;;;;;14.20;12.63;;;11.30;90.90;;;;;;5017503;28;20228;-91
2023/04/24 01:18:59;;;;;;;14.33;13.13;;;11.30;90.90;;;;;;5017878;28;20209;-91
2023/04/24 01:21:29;;;;;;;21.83;20.03;;;11.20;91.00;;;;;;5017528;28;20188;-91
2023/04/24 01:23:55;;;;;;;20.00;18.40;;;11.20;91.20;;;;;;5017563;28;20212;-91
2023/04/24 01:26:21;;;;;;;20.77;19.17;;;11.20;91.30;;;;;;5017578;28;20196;-91
2023/04/24 01:28:47;;;;;;;19.63;18.17;;;11.20;91.40;;;;;;5017938;28;20722;-91
2023/04/24 01:31:14;;;;;;;13.83;12.53;;;11.20;91.50;;;;;;5017505;28;20271;-91
2023/04/24 01:33:42;;;;;;;13.70;12.47;;;11.20;91.50;;;;;;5017640;28;20176;-90
2023/04/24 01:36:10;;;;;;;21.13;19.43;;;11.20;91.50;;;;;;5017089;28;20204;-91
2023/04/24 01:38:35;;;;;;;21.07;19.47;;;11.30;91.50;;;;;;5017333;28;20208;-90
2023/04/24 01:41:01;;;;;;;20.27;18.67;;;11.30;91.60;;;;;;5017291;28;20181;-91
2023/04/24 01:43:27;;;;;;;20.67;18.97;;;11.30;91.70;;;;;;5017222;28;20184;-91
2023/04/24 01:45:52;;;;;;;13.80;12.37;;;11.30;91.70;;;;;;5017372;28;20233;-91
2023/04/24 01:48:18;;;;;;;13.57;12.37;;;11.30;91.70;;;;;;5017020;28;20572;-90
2023/04/24 01:50:44;;;;;;;19.97;18.37;;;11.30;91.80;;;;;;5017203;28;20643;-91
2023/04/24 01:53:09;;;;;;;19.23;17.73;;;11.30;91.80;;;;;;5017018;28;20177;-90
2023/04/24 01:55:35;;;;;;;19.60;18.10;;;11.30;91.80;;;;;;5017075;28;20722;-90
2023/04/24 01:58:02;;;;;;;19.80;18.30;;;11.30;91.80;;;;;;5017289;28;20282;-90
2023/04/24 02:00:27;;;;;;;12.20;11.10;;;11.30;91.70;;;;;;5016943;28;20219;-90
2023/04/24 02:02:53;;;;;;;12.77;11.67;;;11.30;91.80;;;;;;5017608;28;20184;-90
2023/04/24 02:05:19;;;;;;;15.63;14.33;;;11.30;91.60;;;;;;5019350;28;20227;-91
2023/04/24 02:07:44;;;;;;;17.17;15.87;;;11.20;91.60;;;;;;5021068;28;20205;-90
2023/04/24 02:10:10;;;;;;;15.50;14.40;;;11.20;91.40;;;;;;5021450;28;20191;-90
2023/04/24 02:12:36;;;;;;;15.53;14.43;;;11.20;91.30;;;;;;5021634;28;20209;-91
2023/04/24 02:15:01;;;;;;;10.67;9.77;;;11.10;91.00;;;;;;5023361;28;20203;-91
2023/04/24 02:17:27;;;;;;;9.03;8.13;;;11.20;90.80;;;;;;5023356;28;20292;-91
2023/04/24 02:19:52;;;;;;;9.03;8.33;;;11.10;90.70;;;;;;5022071;28;20185;-91
2023/04/24 02:22:18;;;;;;;14.97;13.77;;;11.10;90.70;;;;;;5022846;28;20180;-91
2023/04/24 02:24:43;;;;;;;15.30;14.20;;;11.10;90.00;;;;;;5021728;28;20661;-91
2023/04/24 02:27:09;;;;;;;14.03;13.07;;;11.10;89.90;;;;;;5021332;28;20200;-91
2023/04/24 02:29:35;;;;;;;15.30;14.20;;;11.10;89.70;;;;;;5022227;28;20214;-91
2023/04/24 02:32:00;;;;;;;8.37;7.73;;;10.90;90.00;;;;;;5021947;28;20180;-91
2023/04/24 02:34:26;;;;;;;8.43;7.53;;;10.90;90.10;;;;;;5021624;28;20275;-91
2023/04/24 02:36:53;;;;;;;14.50;13.27;;;10.90;89.90;;;;;;5022093;28;20222;-91
2023/04/24 02:39:19;;;;;;;14.33;13.07;;;10.90;90.10;;;;;;5022142;28;20270;-91
2023/04/24 02:41:45;;;;;;;14.23;13.27;;;10.80;90.10;;;;;;5022041;28;20639;-91
2023/04/24 02:44:10;;;;;;;15.57;13.97;;;10.80;90.10;;;;;;5022326;28;20176;-91
2023/04/24 02:46:36;;;;;;;8.63;7.80;;;10.80;90.00;;;;;;5022583;28;20693;-91
2023/04/24 02:49:02;;;;;;;9.23;8.37;;;10.80;90.10;;;;;;5021198;28;20204;-91
2023/04/24 02:51:28;;;;;;;15.47;14.37;;;10.70;90.10;;;;;;5020595;28;20181;-91
2023/04/24 02:53:53;;;;;;;15.67;14.37;;;10.70;90.10;;;;;;5021679;28;20658;-91
2023/04/24 02:56:19;;;;;;;15.17;13.80;;;10.60;90.20;;;;;;5020802;28;20196;-91
2023/04/24 02:58:45;;;;;;;14.63;13.53;;;10.50;90.20;;;;;;5020754;28;20291;-91
2023/04/24 03:01:10;;;;;;;8.73;8.03;;;10.50;90.30;;;;;;5021339;28;20200;-91
2023/04/24 03:03:37;;;;;;;8.43;7.73;;;10.50;90.30;;;;;;5020943;28;20223;-91
2023/04/24 03:06:05;;;;;;;14.03;13.03;;;10.50;90.40;;;;;;5022991;28;20196;-91
2023/04/24 03:08:31;;;;;;;13.60;12.63;;;10.40;90.40;;;;;;5022531;28;20179;-91
2023/04/24 03:10:57;;;;;;;12.70;11.90;;;10.40;90.40;;;;;;5022561;28;20639;-91
2023/04/24 03:13:22;;;;;;;13.37;12.47;;;10.40;90.20;;;;;;5022716;28;20188;-91
2023/04/24 03:15:48;;;;;;;7.10;6.60;;;10.30;90.00;;;;;;5022045;28;20173;-91
2023/04/24 03:18:13;;;;;;;6.37;5.97;;;10.30;89.40;;;;;;5020785;28;20196;-91
2023/04/24 03:20:39;;;;;;;7.93;7.37;;;10.40;88.60;;;;;;5021687;28;20196;-91
2023/04/24 03:23:05;;;;;;;12.00;11.20;;;10.40;88.30;;;;;;5021111;28;20177;-90
2023/04/24 03:25:30;;;;;;;12.17;11.30;;;10.40;88.10;;;;;;5021450;28;20173;-91
2023/04/24 03:27:56;;;;;;;12.80;11.90;;;10.40;88.00;;;;;;5023302;28;20618;-91
2023/04/24 03:30:21;;;;;;;10.23;9.57;;;10.40;88.10;;;;;;5025074;28;20172;-91
2023/04/24 03:32:47;;;;;;;6.07;5.57;;;10.40;88.10;;;;;;5024110;28;20207;-91
2023/04/24 03:35:12;;;;;;;6.13;5.67;;;10.30;88.30;;;;;;5023551;28;20185;-91
2023/04/24 03:37:38;;;;;;;12.57;11.60;;;10.40;88.40;;;;;;5023941;28;20220;-91
2023/04/24 03:40:05;;;;;;;12.10;11.40;;;10.40;88.40;;;;;;5022725;28;20177;-89
2023/04/24 03:42:31;;;;;;;12.80;11.57;;;10.50;88.20;;;;;;5021934;28;20264;-90
2023/04/24 03:44:56;;;;;;;12.70;11.80;;;10.40;88.10;;;;;;5021603;28;20204;-91
2023/04/24 03:47:22;;;;;;;6.73;5.97;;;10.40;88.00;;;;;;5021051;28;20204;-90
2023/04/24 03:49:47;;;;;;;6.43;5.83;;;10.30;88.20;;;;;;5021074;28;20661;-92
2023/04/24 03:52:13;;;;;;;11.80;11.00;;;10.30;88.50;;;;;;5021826;28;20211;-92
2023/04/24 03:54:39;;;;;;;12.00;10.90;;;10.30;88.60;;;;;;5021149;28;20176;-90
2023/04/24 03:57:04;;;;;;;12.50;11.70;;;10.20;88.50;;;;;;5021019;28;20232;-92
2023/04/24 03:59:30;;;;;;;12.63;11.83;;;10.20;88.50;;;;;;5020540;28;20215;-91
2023/04/24 04:01:56;;;;;;;6.40;5.90;;;10.20;88.40;;;;;;5022916;28;20180;-92
2023/04/24 04:04:21;;;;;;;6.17;5.67;;;10.20;88.40;;;;;;5024140;28;20173;-91
2023/04/24 04:06:47;;;;;;;11.77;10.80;;;10.20;88.40;;;;;;5020991;28;20197;-92
2023/04/24 04:09:13;;;;;;;12.33;11.53;;;10.20;88.60;;;;;;5020728;28;20188;-91
2023/04/24 04:11:39;;;;;;;12.03;11.17;;;10.10;88.70;;;;;;5021194;28;20181;-92
2023/04/24 04:14:05;;;;;;;11.83;10.97;;;10.10;88.80;;;;;;5020859;28;20180;-91
2023/04/24 04:16:30;;;;;;;7.60;7.10;;;10.10;88.70;;;;;;5020760;28;20201;-91
2023/04/24 04:18:56;;;;;;;9.40;6.60;;;10.10;88.90;;;;;;5021226;28;20212;-91
2023/04/24 04:21:22;;;;;;;7.53;6.93;;;10.10;88.80;;;;;;5020646;28;20181;-91
2023/04/24 04:23:48;;;;;;;11.53;10.73;;;10.00;89.00;;;;;;5020282;28;20184;-92
2023/04/24 04:26:13;;;;;;;10.43;9.73;;;10.00;89.00;;;;;;5020826;28;20596;-91
2023/04/24 04:28:39;;;;;;;14.30;9.40;;;10.00;88.90;;;;;;5019414;28;20180;-91
2023/04/24 04:31:07;;;;;;;10.80;10.00;;;10.00;88.90;;;;;;5019802;28;20186;-91
2023/04/24 04:33:33;;;;;;;7.83;6.53;;;9.90;88.80;;;;;;5021412;28;20665;-92
2023/04/24 04:35:59;;;;;;;7.27;6.57;;;10.00;88.70;;;;;;5018841;28;20223;-92
2023/04/24 04:38:26;;;;;;;11.50;10.80;;;9.90;88.90;;;;;;5019053;28;20663;-91
2023/04/24 04:40:52;;;;;;;12.90;11.80;;;10.00;88.80;;;;;;5018468;28;20553;-91
2023/04/24 04:43:17;;;;;;;11.27;10.47;;;10.20;88.50;;;;;;5018231;28;20172;-91
2023/04/24 04:45:43;;;;;;;12.00;11.20;;;10.20;88.50;;;;;;5018580;28;20183;-91
2023/04/24 04:48:09;;;;;;;8.13;7.43;;;10.30;88.00;;;;;;5018877;28;20585;-91
2023/04/24 04:50:38;;;;;;;8.60;7.60;;;10.50;86.90;;;;;;5018274;28;20180;-91
2023/04/24 04:53:03;;;;;;;13.07;12.00;;;10.50;86.80;;;;;;5017906;28;20184;-91
2023/04/24 04:55:29;;;;;;;12.23;11.33;;;10.60;86.40;;;;;;5017784;28;20184;-91
2023/04/24 04:57:56;;;;;;;12.17;11.47;;;10.60;85.70;;;;;;5017785;28;20644;-91
2023/04/24 05:00:22;;;;;;;12.60;11.77;;;10.60;84.90;;;;;;5018115;28;20234;-91
2023/04/24 05:02:48;;;;;;;7.70;6.67;;;10.70;84.40;;;;;;5017521;28;20255;-91
2023/04/24 05:05:14;;;;;;;7.03;6.53;;;10.80;84.40;;;;;;5017784;28;20606;-91
2023/04/24 05:07:40;;;;;;;5.57;5.07;;;10.80;83.90;;;;;;5017516;28;20200;-91
2023/04/24 05:10:06;;;;;;;12.60;11.50;;;10.80;84.00;;;;;;5017811;28;20661;-91
2023/04/24 05:12:31;;;;;;;11.90;11.00;;;10.80;83.70;;;;;;5017483;28;20180;-91
2023/04/24 05:14:57;;;;;;;12.30;11.50;;;10.80;83.40;;;;;;5017701;28;20187;-91
2023/04/24 05:17:23;;;;;;;12.70;11.93;;;10.90;83.80;;;;;;5017724;28;20287;-91
2023/04/24 05:19:48;;;;;;;6.70;6.10;;;10.80;83.70;;;;;;5018827;28;20250;-91
2023/04/24 05:22:14;;;;;;;5.90;5.40;;;10.90;83.30;;;;;;5019044;28;20634;-91
2023/04/24 05:24:40;;;;;;;13.57;12.73;;;10.90;83.30;;;;;;5016671;28;20168;-91
2023/04/24 05:27:06;;;;;;;12.93;12.03;;;10.90;82.90;;;;;;5015430;28;20199;-91
2023/04/24 05:29:32;;;;;;;12.33;11.37;;;10.90;83.40;;;;;;5033401;28;20173;-91
2023/04/24 05:31:58;;;;;;;11.87;10.93;;;10.90;83.20;;;;;;5033190;28;20222;-90
2023/04/24 05:34:24;;;;;;;5.97;5.43;;;10.90;83.40;;;;;;5015588;28;20176;-90
2023/04/24 05:36:50;;;;;;;6.13;5.63;;;11.00;82.80;;;;;;5015280;28;20216;-90
2023/04/24 05:39:16;;;;;;;12.17;11.33;;;11.00;82.70;;;;;;5033050;28;20670;-91
2023/04/24 05:41:42;;;;;;;12.17;11.40;;;11.00;82.70;;;;;;5019399;28;20206;-90
2023/04/24 05:44:08;;;;;;;10.53;9.93;;;11.10;82.60;;;;;;5019367;28;20200;-90
2023/04/24 05:46:33;;;;;;;11.70;10.97;;;11.10;82.20;;;;;;5019189;28;20192;-90
2023/04/24 05:48:59;;;;;;;4.93;4.63;;;11.10;82.30;;;;;;5036952;28;20179;-91
2023/04/24 05:51:25;;;;;;;5.50;5.10;;;11.10;82.50;;;;;;5036869;28;20184;-91
2023/04/24 05:53:51;;;;;;;11.37;10.67;;;11.10;82.50;;;;;;5036854;28;20168;-90
2023/04/24 05:56:17;;;;;;;11.10;10.50;;;11.10;82.40;;;;;;5036721;28;20290;-91
2023/04/24 05:58:42;;;;;;;12.07;11.13;;;11.10;81.90;;;;;;5018950;28;20246;-90
2023/04/24 06:01:08;;;;;;;12.30;11.47;;;11.20;81.80;;;;;;5019050;28;20235;-91
2023/04/24 06:03:34;;;;;;;5.90;5.50;;;11.20;81.90;;;;;;5036730;28;20173;-91
2023/04/24 06:05:59;;;;;;;5.77;5.43;;;11.30;81.10;;;;;;5036627;28;20185;-91
2023/04/24 06:08:25;;;;;;;5.67;5.27;;;11.30;80.90;;;;;;5018771;28;20181;-90
2023/04/24 06:10:51;;;;;;;12.40;11.40;;;11.30;81.30;;;;;;5018774;28;20227;-91
2023/04/24 06:13:17;;;;;;;13.27;12.47;;;11.30;81.90;;;;;;5036353;28;20169;-91
2023/04/24 06:15:43;;;;;;;12.10;11.27;;;11.30;81.20;;;;;;5018622;28;20230;-88
2023/04/24 06:18:10;;;;;;;13.20;12.40;;;11.30;81.80;;;;;;5018932;28;20207;-89
2023/04/24 06:20:36;;;;;;;6.60;6.20;;;11.30;81.70;;;;;;5036630;28;20165;-88
2023/04/24 06:23:01;;;;;;;6.33;5.83;;;11.40;80.60;;;;;;5018425;28;20311;-88
2023/04/24 06:25:27;;;;;;;12.50;11.80;;;11.50;81.60;;;;;;5036384;28;20169;-90
2023/04/24 06:27:54;;;;;;;12.17;11.37;;;11.50;81.70;;;;;;5036652;28;20200;-91
2023/04/24 06:30:19;;;;;;;14.10;13.20;;;11.50;82.10;;;;;;5037012;28;20169;-91
2023/04/24 06:32:45;;;;;;;13.07;12.27;;;11.50;80.70;;;;;;5036571;28;20252;-90
2023/04/24 06:35:12;;;;;;;6.57;6.13;;;11.60;80.80;;;;;;5018851;28;20177;-91
2023/04/24 06:37:41;;;;;;;6.20;5.70;;;11.60;81.10;;;;;;5018451;28;20216;-90
2023/04/24 06:40:07;;;;;;;6.50;6.10;;;11.60;80.90;;;;;;5018506;28;20172;-91
2023/04/24 06:42:32;;;;;;;6.40;6.00;;;11.60;80.30;;;;;;5018944;28;20267;-90
2023/04/24 06:44:59;;;;;;;7.03;5.80;;;11.70;81.80;;;;;;5036126;28;20535;-91
2023/04/24 06:47:24;;;;;;;5.90;5.50;;;11.70;81.00;;;;;;5018319;28;20200;-91
2023/04/24 06:49:52;;;;;;;6.70;6.03;;;11.70;81.10;;;;;;5018735;28;20547;-90
2023/04/24 06:52:18;;;;;;;7.87;7.00;;;11.70;80.10;;;;;;5035791;28;20279;-91
2023/04/24 06:54:43;;;;;;;6.10;5.70;;;11.70;80.50;;;;;;5035965;28;20687;-92
2023/04/24 06:57:10;;;;;;;7.13;6.63;;;11.70;80.20;;;;;;5018161;28;20572;-93
2023/04/24 06:59:36;;;;;;;7.40;6.80;;;11.90;79.40;;;;;;5017881;28;20585;-92
2023/04/24 07:02:01;;;;;;;8.30;7.00;;;12.00;79.70;;;;;;5018154;28;20230;-91
2023/04/24 07:04:27;;;;;;;7.37;6.87;;;12.20;79.60;;;;;;5018255;28;20168;-91
2023/04/24 07:06:57;;;;;;;8.30;7.60;;;12.00;79.00;;;;;;5035576;28;20207;-91
2023/04/24 07:09:25;;;;;;;7.60;6.83;;;11.90;79.60;;;;;;5018201;28;20172;-91
2023/04/24 07:11:51;;;;;;;7.47;6.97;;;12.00;80.30;;;;;;5035533;28;20169;-91
2023/04/24 07:14:17;;;;;;;7.17;6.73;;;12.00;79.50;;;;;;5035464;28;20172;-91
2023/04/24 07:16:42;;;;;;;7.00;6.40;;;12.00;79.60;;;;;;5017936;28;20200;-92
2023/04/24 07:19:09;;;;;;;7.97;7.17;;;12.20;80.30;;;;;;5017764;28;20683;-90
2023/04/24 07:21:35;;;;;;;7.10;6.50;;;12.00;80.10;;;;;;5017831;28;20204;-91
2023/04/24 07:24:01;;;;;;;8.40;7.53;;;11.90;79.50;;;;;;5035185;28;20169;-91
2023/04/24 07:26:28;;;;;;;7.57;6.83;;;11.90;80.10;;;;;;5035351;28;20188;-92
2023/04/24 07:28:54;;;;;;;8.70;7.90;;;11.90;81.00;;;;;;5035182;28;20169;-91
2023/04/24 07:31:20;;;;;;;8.47;7.77;;;11.90;80.40;;;;;;5035271;28;20180;-92
2023/04/24 07:33:46;;;;;;;7.40;6.90;;;11.80;80.20;;;;;;5035241;28;20222;-91
2023/04/24 07:36:15;;;;;;;8.23;7.37;;;11.80;79.80;;;;;;5035445;28;20212;-90
2023/04/24 07:38:42;;;;;;;8.63;7.87;;;11.80;79.70;;;;;;5035241;28;20295;-91
2023/04/24 07:41:07;;;;;;;8.23;7.63;;;11.80;80.70;;;;;;5017244;28;20176;-91
2023/04/24 07:43:33;;;;;;;8.37;7.57;;;11.70;80.50;;;;;;5017665;28;20192;-91
2023/04/24 07:45:59;;;;;;;8.47;7.87;;;11.80;80.50;;;;;;5034837;28;20223;-90
2023/04/24 07:48:26;;;;;;;7.73;7.13;;;11.80;80.30;;;;;;5017004;28;20184;-90
2023/04/24 07:50:52;;;;;;;8.33;7.63;;;11.70;80.40;;;;;;5017001;28;20192;-92
2023/04/24 07:53:17;;;;;;;8.07;7.57;;;11.70;80.30;;;;;;5034728;28;20173;-91
2023/04/24 07:55:43;;;;;;;9.70;9.00;;;11.70;80.30;;;;;;5016986;28;20284;-91
2023/04/24 07:58:08;;;;;;;8.93;8.23;;;11.80;80.80;;;;;;5017137;28;20236;-91
2023/04/24 08:00:34;;;;;;;9.27;8.47;;;11.90;80.20;;;;;;5017087;28;20278;-93
2023/04/24 08:03:00;;;;;;;10.77;9.73;;;11.80;79.60;;;;;;5017047;28;20227;-89
2023/04/24 08:05:27;;;;;;;9.13;8.40;;;12.00;80.30;;;;;;5034493;28;20169;-89
2023/04/24 08:07:53;;;;;;;9.47;8.77;;;11.90;79.00;;;;;;5034197;28;20682;-89
2023/04/24 08:10:18;;;;;;;9.27;8.47;;;11.90;79.20;;;;;;5034546;28;20165;-89
2023/04/24 08:12:44;;;;;;;10.47;9.77;;;11.80;79.30;;;;;;5034461;28;20251;-88
2023/04/24 08:15:10;;;;;;;9.83;9.13;;;11.70;79.20;;;;;;5016401;28;20177;-88
2023/04/24 08:17:35;;;;;;;10.03;9.13;;;11.70;79.50;;;;;;5016362;28;20201;-88
2023/04/24 08:20:02;;;;;;;10.53;9.57;;;11.70;79.30;;;;;;5016343;28;20177;-88
2023/04/24 08:22:28;;;;;;;9.67;8.87;;;11.80;79.50;;;;;;5016232;28;20559;-88
2023/04/24 08:24:54;;;;;;;10.83;9.73;;;11.90;79.80;;;;;;5016284;28;20176;-87
2023/04/24 08:27:20;;;;;;;11.17;10.27;;;11.90;79.10;;;;;;5016173;28;20197;-88
2023/04/24 08:29:45;;;;;;;9.20;8.53;;;12.10;79.80;;;;;;5033910;28;20168;-89
2023/04/24 08:32:11;;;;;;;9.60;8.90;;;12.30;79.70;;;;;;5033795;28;20200;-88
2023/04/24 08:34:36;;;;;;;9.90;9.20;;;12.30;78.60;;;;;;5033761;28;20226;-88
2023/04/24 08:37:02;;;;;;;9.53;8.70;;;12.30;77.80;;;;;;5033480;28;20200;-88
2023/04/24 08:39:28;;;;;;;10.57;9.77;;;12.40;78.80;;;;;;5034222;28;20254;-88
2023/04/24 08:41:55;;;;;;;18.27;17.03;;;12.30;77.60;;;;;;5033832;28;20594;-87
2023/04/24 08:44:21;;;;;;;19.87;18.60;;;12.30;78.80;;;;;;5033624;28;20169;-87
2023/04/24 08:46:51;;;;;;;11.07;10.17;;;12.30;78.10;;;;;;5015912;28;20689;-87
2023/04/24 08:49:17;;;;;;;11.17;10.37;;;12.40;79.80;;;;;;5015976;28;20187;-87
2023/04/24 08:51:44;;;;;;;18.90;17.47;;;12.20;78.50;;;;;;5015848;28;20181;-88
2023/04/24 08:54:11;;;;;;;19.53;18.10;;;12.20;79.20;;;;;;5016659;28;20184;-88
2023/04/24 08:56:40;;;;;;;17.20;15.93;;;12.00;78.00;;;;;;5033372;28;20201;-87
2023/04/24 08:59:06;;;;;;;22.30;20.50;;;12.10;79.50;;;;;;5015615;28;20208;-89
2023/04/24 09:01:33;;;;;;;12.80;11.57;;;12.10;79.10;;;;;;5015808;28;20169;-90
2023/04/24 09:04:03;;;;;;;14.13;12.77;;;12.20;80.00;;;;;;5033557;28;20255;-91
2023/04/24 09:06:30;;;;;;;18.73;17.23;;;12.00;79.60;;;;;;5015700;28;20678;-90
2023/04/24 09:08:56;;;;;;;20.67;18.97;;;11.90;79.30;;;;;;5015877;28;20224;-90
2023/04/24 09:11:24;;;;;;;19.83;18.33;;;11.80;79.30;;;;;;5033343;28;20192;-90
2023/04/24 09:13:50;;;;;;;18.63;17.17;;;11.90;79.80;;;;;;5015998;28;20185;-90
2023/04/24 09:16:16;;;;;;;16.20;14.47;;;12.00;80.10;;;;;;5015580;28;20200;-90
2023/04/24 09:18:42;;;;;;;11.03;10.13;;;12.00;80.20;;;;;;5033396;28;20222;-91
2023/04/24 09:21:09;;;;;;;14.13;12.93;;;12.10;79.50;;;;;;5016156;28;20717;-91
2023/04/24 09:23:34;;;;;;;19.30;17.77;;;12.10;78.40;;;;;;5016073;28;20688;-91
2023/04/24 09:26:02;;;;;;;17.43;15.93;;;12.20;78.90;;;;;;5016157;28;20200;-92
2023/04/24 09:28:40;;;;;;;17.57;16.37;;;12.30;78.00;;;;;;5033177;28;20188;-91
2023/04/24 09:31:07;;;;;;;17.23;15.93;;;12.20;77.70;;;;;;5016286;28;20267;-91
2023/04/24 09:33:33;;;;;;;14.03;12.83;;;12.10;77.90;;;;;;5033152;28;20180;-90
2023/04/24 09:35:59;;;;;;;14.17;12.83;;;12.10;78.90;;;;;;5032930;28;20270;-91
2023/04/24 09:38:35;;;;;;;17.77;16.37;;;12.10;78.90;;;;;;5033685;28;20199;-90
2023/04/24 09:41:03;;;;;;;19.13;17.73;;;12.20;78.00;;;;;;5015776;28;20545;-91
2023/04/24 09:43:29;;;;;;;19.67;18.10;;;12.10;77.50;;;;;;5015981;28;20717;-92
2023/04/24 09:45:59;;;;;;;20.23;18.70;;;12.20;77.40;;;;;;5015433;28;20176;-88
2023/04/24 09:48:35;;;;;;;11.27;10.27;;;12.20;76.80;;;;;;5015680;28;20234;-91
2023/04/24 09:51:03;;;;;;;11.20;10.23;;;12.20;77.20;;;;;;5033172;28;20226;-90
2023/04/24 09:53:29;;;;;;;16.70;15.30;;;12.20;77.00;;;;;;5016635;28;20177;-90
2023/04/24 09:55:55;;;;;;;17.70;16.30;;;12.10;76.80;;;;;;5033242;28;20176;-89
2023/04/24 09:58:29;;;;;;;19.27;17.67;;;12.30;78.30;;;;;;5033487;28;20204;-90
2023/04/24 10:00:56;;;;;;;18.17;16.77;;;12.20;77.70;;;;;;5033476;28;20222;-91
2023/04/24 10:03:24;;;;;;;14.20;12.40;;;12.10;76.40;;;;;;5015496;28;20177;-91
2023/04/24 10:05:52;;;;;;;15.13;13.70;;;12.20;77.40;;;;;;5015413;28;20188;-87
2023/04/24 10:08:18;;;;;;;17.10;15.70;;;12.10;77.20;;;;;;5032789;28;20173;-89
2023/04/24 10:10:45;;;;;;;18.57;17.17;;;12.00;76.90;;;;;;5015070;28;20275;-88
2023/04/24 10:13:14;;;;;;;18.57;17.07;;;11.80;78.00;;;;;;5015457;28;20177;-89
2023/04/24 10:15:40;;;;;;;19.17;17.67;;;11.70;77.40;;;;;;5032612;28;20244;-88
2023/04/24 10:18:07;;;;;;;14.17;12.87;;;11.70;79.20;;;;;;5015324;28;20318;-89
2023/04/24 10:20:34;;;;;;;13.93;12.57;;;11.80;78.50;;;;;;5016163;28;20182;-91
2023/04/24 10:23:00;;;;;;;19.93;18.33;;;11.80;77.20;;;;;;5033683;28;20177;-91
2023/04/24 10:25:31;;;;;;;20.50;18.77;;;11.90;77.10;;;;;;5016010;28;20685;-91
2023/04/24 10:28:01;;;;;;;22.40;20.40;;;12.00;76.40;;;;;;5018909;28;20232;-91
2023/04/24 10:30:29;;;;;;;15.43;14.20;;;12.00;77.00;;;;;;5018687;28;20173;-93
2023/04/24 10:32:55;;;;;;;13.83;12.57;;;12.00;77.00;;;;;;5037205;28;20177;-91
2023/04/24 10:35:25;;;;;;;15.20;13.53;;;12.00;77.70;;;;;;5019069;28;20644;-91
2023/04/24 10:38:10;;;;;;;16.07;14.70;;;12.00;77.60;;;;;;5019008;28;20255;-90
2023/04/24 10:40:36;;;;;;;16.60;14.97;;;12.00;77.40;;;;;;5019041;28;20184;-91
2023/04/24 10:43:06;;;;;;;16.37;14.77;;;11.90;77.70;;;;;;5020068;28;20651;-91
2023/04/24 10:45:31;;;;;;;13.43;12.37;;;12.00;77.70;;;;;;5019818;28;20208;-92
2023/04/24 10:48:01;;;;;;;15.10;13.13;;;12.00;75.70;;;;;;5019203;28;20239;-90
2023/04/24 10:50:27;;;;;;;15.03;13.50;;;12.00;76.30;;;;;;5036612;28;20260;-89
2023/04/24 10:52:55;;;;;;;13.80;12.50;;;12.10;76.40;;;;;;5018087;28;20250;-89
2023/04/24 10:55:43;;;;;;;15.60;14.10;;;12.20;77.10;;;;;;5017975;28;20177;-89
2023/04/24 10:58:09;;;;;;;14.53;13.37;;;12.20;77.00;;;;;;5035906;28;20223;-91
2023/04/24 11:00:38;;;;;;;23.60;21.57;;;12.10;77.00;;;;;;5035699;28;20161;-90
2023/04/24 11:03:22;;;;;;;18.27;16.47;;;12.00;76.50;;;;;;5035610;28;20647;-90
2023/04/24 11:06:02;;;;;;;16.33;14.83;;;12.20;77.70;;;;;;5035545;28;20157;-89
2023/04/24 11:08:44;;;;;;;25.83;23.47;;;12.20;77.00;;;;;;5018468;28;20230;-90
2023/04/24 11:11:15;;;;;;;26.33;23.50;;;12.00;77.20;;;;;;5018049;28;20184;-89
2023/04/24 11:13:56;;;;;;;27.33;24.70;;;11.90;77.70;;;;;;5017734;28;20223;-89
2023/04/24 11:16:49;;;;;;;24.23;22.23;;;11.80;78.50;;;;;;5017835;28;20200;-89
2023/04/24 11:19:16;;;;;;;13.97;12.10;;;11.80;78.30;;;;;;5017490;28;20247;-89
2023/04/24 11:21:54;;;;;;;17.73;15.83;;;11.70;78.80;;;;;;5017744;28;20661;-89
2023/04/24 11:24:24;;;;;;;28.23;25.53;;;11.60;77.30;;;;;;5017599;28;20169;-89
2023/04/24 11:26:56;;;;;;;27.53;25.23;;;11.60;77.80;;;;;;5017353;28;20199;-89
2023/04/24 11:29:22;;;;;;;24.97;22.67;;;11.70;78.90;;;;;;5017392;28;20200;-89
2023/04/24 11:31:49;;;;;;;24.87;22.60;;;11.60;77.70;;;;;;5035042;28;20227;-89
2023/04/24 11:34:16;;;;;;;19.17;17.17;;;11.70;77.50;;;;;;5017400;28;20268;-89
2023/04/24 11:36:48;;;;;;;17.10;15.33;;;11.70;77.10;;;;;;5017346;28;20208;-89
2023/04/24 11:39:14;;;;;;;23.90;21.90;;;11.70;77.10;;;;;;5016476;28;20209;-89
2023/04/24 11:41:40;;;;;;;25.53;23.13;;;11.80;77.70;;;;;;5017926;28;20168;-90
2023/04/24 11:44:07;;;;;;;22.80;20.90;;;11.70;77.80;;;;;;5017105;28;20177;-89
2023/04/24 11:46:33;;;;;;;26.33;24.07;;;11.70;76.70;;;;;;5017625;28;20235;-89
2023/04/24 11:48:59;;;;;;;18.63;16.67;;;11.70;76.50;;;;;;5017303;28;20544;-89
2023/04/24 11:51:27;;;;;;;16.57;15.07;;;11.70;77.20;;;;;;5016933;28;20185;-90
2023/04/24 11:53:56;;;;;;;23.40;21.50;;;11.70;77.10;;;;;;5034857;28;20173;-89
2023/04/24 11:56:22;;;;;;;22.33;20.50;;;11.70;77.50;;;;;;5017005;28;20201;-88
2023/04/24 11:58:48;;;;;;;24.20;22.00;;;11.70;77.30;;;;;;5034389;28;20564;-89
2023/04/24 12:01:14;;;;;;;22.13;20.33;;;11.70;76.70;;;;;;5034359;28;20165;-89
2023/04/24 12:03:43;;;;;;;14.63;13.23;;;11.60;76.40;;;;;;5017049;28;20638;-89
2023/04/24 12:06:11;;;;;;;15.33;13.83;;;11.60;76.30;;;;;;5034532;28;20737;-89
2023/04/24 12:08:37;;;;;;;23.10;20.93;;;11.60;77.80;;;;;;5034274;28;20173;-89
2023/04/24 12:11:04;;;;;;;20.67;18.90;;;11.50;76.10;;;;;;5016916;28;20560;-89
2023/04/24 12:13:30;;;;;;;20.63;19.00;;;11.50;77.70;;;;;;5016831;28;20177;-89
2023/04/24 12:15:59;;;;;;;21.50;19.77;;;11.40;77.50;;;;;;5034410;28;20165;-89
2023/04/24 12:18:25;;;;;;;13.90;12.57;;;11.40;77.80;;;;;;5016459;28;20211;-89
2023/04/24 12:20:51;;;;;;;15.27;13.87;;;11.40;77.20;;;;;;5016454;28;20231;-89
2023/04/24 12:23:32;;;;;;;17.90;16.50;;;11.50;77.20;;;;;;5016375;28;20553;-89
2023/04/24 12:26:01;;;;;;;18.07;16.60;;;11.50;77.70;;;;;;5016571;28;20256;-89
2023/04/24 12:28:38;;;;;;;16.60;15.10;;;11.60;77.70;;;;;;5016224;28;20235;-88
2023/04/24 12:31:04;;;;;;;15.03;13.83;;;11.50;77.60;;;;;;5016786;28;20179;-89